RAM997 LPPR-GMMN
Flight info
| Callsign | RAM997 |
|---|---|
| Flight time | 1h 30m |
| Altitude | 35000 |
| Route | MANIK DCT FTM DCT SOTEX DCT VFA DCT GIMAL DCT AMSEL UR722 LAKAM |
| Aircraft | B738/M-SDE3FGHIRWY/LB1 |
Departure
| Time | 2026-05-07 17:33 |
|---|---|
| Airport | Francisco de Sá Carneiro Airport (LPPR) |
Arrival
| Time | 2026-05-07 19:03 |
|---|---|
| Airport | Mohammed V International Airport (GMMN) |
| Time | Latitude | Longitude | Altitude | Speed | Heading |
|---|---|---|---|---|---|
| 2026-05-07 17:30 | 41.23307 | -8.67609 | 274 ft | 0 kts | 259° |
| 2026-05-07 17:31 | 41.23303 | -8.67637 | 275 ft | 6 kts | 259° |
| 2026-05-07 17:31 | 41.23304 | -8.67688 | 276 ft | 6 kts | 284° |
| 2026-05-07 17:32 | 41.23340 | -8.67738 | 276 ft | 11 kts | 333° |
| 2026-05-07 17:32 | 41.23496 | -8.67782 | 268 ft | 52 kts | 349° |
| 2026-05-07 17:32 | 41.24124 | -8.67947 | 245 ft | 128 kts | 348° |
| 2026-05-07 17:32 | 41.24785 | -8.68125 | 327 ft | 160 kts | 347° |
| 2026-05-07 17:33 | 41.26269 | -8.68476 | 1491 ft | 161 kts | 346° |
| 2026-05-07 17:33 | 41.27410 | -8.68761 | 2273 ft | 168 kts | 341° |
| 2026-05-07 17:33 | 41.28639 | -8.69117 | 2796 ft | 197 kts | 343° |
| 2026-05-07 17:33 | 41.30077 | -8.69510 | 3121 ft | 222 kts | 345° |
| 2026-05-07 17:34 | 41.31662 | -8.69936 | 3494 ft | 241 kts | 346° |
| 2026-05-07 17:34 | 41.33398 | -8.70410 | 3801 ft | 267 kts | 347° |
| 2026-05-07 17:34 | 41.35259 | -8.70927 | 4529 ft | 280 kts | 345° |
| 2026-05-07 17:34 | 41.37173 | -8.71459 | 5442 ft | 283 kts | 345° |
| 2026-05-07 17:35 | 41.39088 | -8.72146 | 6351 ft | 287 kts | 334° |
| 2026-05-07 17:35 | 41.40680 | -8.73705 | 7100 ft | 285 kts | 304° |
| 2026-05-07 17:35 | 41.41560 | -8.76030 | 8013 ft | 281 kts | 282° |
| 2026-05-07 17:35 | 41.41726 | -8.78603 | 8822 ft | 279 kts | 257° |
| 2026-05-07 17:36 | 41.41321 | -8.81134 | 9551 ft | 281 kts | 253° |
| 2026-05-07 17:36 | 41.40632 | -8.83605 | 9828 ft | 289 kts | 234° |
| 2026-05-07 17:36 | 41.39181 | -8.85403 | 10484 ft | 294 kts | 207° |
| 2026-05-07 17:36 | 41.37134 | -8.86106 | 10664 ft | 319 kts | 179° |
| 2026-05-07 17:37 | 41.34913 | -8.85491 | 11087 ft | 335 kts | 162° |
| 2026-05-07 17:37 | 41.32701 | -8.84480 | 11675 ft | 345 kts | 162° |
| 2026-05-07 17:37 | 41.30397 | -8.83523 | 12435 ft | 349 kts | 165° |
| 2026-05-07 17:37 | 41.28035 | -8.82674 | 13246 ft | 354 kts | 166° |
| 2026-05-07 17:38 | 41.25634 | -8.81914 | 14004 ft | 359 kts | 168° |
| 2026-05-07 17:38 | 41.23170 | -8.81204 | 14731 ft | 363 kts | 168° |
| 2026-05-07 17:38 | 41.20679 | -8.80523 | 15486 ft | 368 kts | 169° |
| 2026-05-07 17:38 | 41.18157 | -8.79851 | 16227 ft | 373 kts | 169° |
| 2026-05-07 17:39 | 41.15592 | -8.79175 | 16953 ft | 378 kts | 169° |
| 2026-05-07 17:39 | 41.13001 | -8.78493 | 17668 ft | 383 kts | 169° |
| 2026-05-07 17:39 | 41.10370 | -8.77800 | 18351 ft | 388 kts | 169° |
| 2026-05-07 17:39 | 41.07712 | -8.77100 | 18978 ft | 392 kts | 169° |
| 2026-05-07 17:40 | 41.05030 | -8.76367 | 19591 ft | 396 kts | 167° |
| 2026-05-07 17:40 | 41.02357 | -8.75381 | 20196 ft | 401 kts | 164° |
| 2026-05-07 17:40 | 40.99695 | -8.74255 | 20778 ft | 405 kts | 163° |
| 2026-05-07 17:40 | 40.97002 | -8.73083 | 21374 ft | 409 kts | 163° |
| 2026-05-07 17:41 | 40.94278 | -8.71908 | 21935 ft | 413 kts | 163° |
| 2026-05-07 17:41 | 40.91522 | -8.70741 | 22371 ft | 420 kts | 164° |
| 2026-05-07 17:41 | 40.88701 | -8.69627 | 22880 ft | 424 kts | 169° |
| 2026-05-07 17:41 | 40.85796 | -8.68975 | 23477 ft | 424 kts | 174° |
| 2026-05-07 17:42 | 40.82865 | -8.68477 | 23951 ft | 427 kts | 175° |
| 2026-05-07 17:42 | 40.79907 | -8.68009 | 24412 ft | 430 kts | 175° |
| 2026-05-07 17:42 | 40.76937 | -8.67538 | 24938 ft | 430 kts | 176° |
| 2026-05-07 17:42 | 40.73957 | -8.67052 | 25405 ft | 433 kts | 176° |
| 2026-05-07 17:43 | 40.70958 | -8.66549 | 25825 ft | 436 kts | 176° |
| 2026-05-07 17:43 | 40.67929 | -8.66030 | 26239 ft | 439 kts | 176° |
| 2026-05-07 17:43 | 40.64892 | -8.65502 | 26655 ft | 442 kts | 176° |
| 2026-05-07 17:43 | 40.61831 | -8.64966 | 27071 ft | 445 kts | 176° |
| 2026-05-07 17:44 | 40.58758 | -8.64425 | 27470 ft | 447 kts | 176° |
| 2026-05-07 17:44 | 40.55667 | -8.63881 | 27894 ft | 448 kts | 176° |
| 2026-05-07 17:44 | 40.52607 | -8.63342 | 28296 ft | 450 kts | 176° |
| 2026-05-07 17:44 | 40.49495 | -8.62795 | 28651 ft | 453 kts | 176° |
| 2026-05-07 17:45 | 40.46356 | -8.62244 | 28997 ft | 456 kts | 176° |
| 2026-05-07 17:45 | 40.43211 | -8.61693 | 29386 ft | 457 kts | 176° |
| 2026-05-07 17:45 | 40.40064 | -8.61141 | 29941 ft | 455 kts | 177° |
| 2026-05-07 17:45 | 40.36941 | -8.60593 | 30464 ft | 452 kts | 177° |
| 2026-05-07 17:46 | 40.33827 | -8.60047 | 30918 ft | 450 kts | 177° |
| 2026-05-07 17:46 | 40.30719 | -8.59504 | 31326 ft | 450 kts | 177° |
| 2026-05-07 17:46 | 40.27614 | -8.58963 | 31711 ft | 449 kts | 178° |
| 2026-05-07 17:46 | 40.24529 | -8.58426 | 32137 ft | 448 kts | 178° |
| 2026-05-07 17:47 | 40.21448 | -8.57890 | 32557 ft | 447 kts | 178° |
| 2026-05-07 17:47 | 40.19411 | -8.57536 | 32852 ft | 446 kts | 178° |
| 2026-05-07 17:47 | 40.16342 | -8.57003 | 33289 ft | 444 kts | 178° |
| 2026-05-07 17:47 | 40.13277 | -8.56471 | 33696 ft | 443 kts | 178° |
| 2026-05-07 17:48 | 40.10221 | -8.55940 | 34095 ft | 442 kts | 178° |
| 2026-05-07 17:48 | 40.07182 | -8.55414 | 34453 ft | 441 kts | 178° |
| 2026-05-07 17:48 | 40.04149 | -8.54889 | 34789 ft | 440 kts | 179° |
| 2026-05-07 17:48 | 40.01103 | -8.54364 | 34900 ft | 444 kts | 179° |
| 2026-05-07 17:49 | 39.94966 | -8.53308 | 34907 ft | 444 kts | 179° |
| 2026-05-07 17:49 | 39.88885 | -8.52254 | 34908 ft | 437 kts | 179° |
| 2026-05-07 17:50 | 39.82846 | -8.51215 | 34914 ft | 438 kts | 179° |
| 2026-05-07 17:50 | 39.76791 | -8.50178 | 34915 ft | 439 kts | 179° |
| 2026-05-07 17:51 | 39.70716 | -8.49138 | 34895 ft | 440 kts | 179° |
| 2026-05-07 17:51 | 39.64644 | -8.48099 | 34903 ft | 441 kts | 180° |
| 2026-05-07 17:52 | 39.58566 | -8.47059 | 34907 ft | 441 kts | 180° |
| 2026-05-07 17:52 | 39.52474 | -8.46020 | 34904 ft | 441 kts | 180° |
| 2026-05-07 17:53 | 39.46390 | -8.44983 | 34898 ft | 440 kts | 180° |
| 2026-05-07 17:53 | 39.40338 | -8.43953 | 34893 ft | 438 kts | 180° |
| 2026-05-07 17:54 | 39.34311 | -8.42930 | 34902 ft | 436 kts | 180° |
| 2026-05-07 17:54 | 39.28313 | -8.41914 | 34897 ft | 434 kts | 180° |
| 2026-05-07 17:55 | 39.22341 | -8.40904 | 34897 ft | 432 kts | 180° |
| 2026-05-07 17:55 | 39.16427 | -8.39907 | 34900 ft | 430 kts | 180° |
| 2026-05-07 17:56 | 39.10454 | -8.38901 | 34902 ft | 430 kts | 180° |
| 2026-05-07 17:56 | 39.04523 | -8.37905 | 34884 ft | 431 kts | 180° |
| 2026-05-07 17:57 | 38.99559 | -8.37078 | 34914 ft | 440 kts | 180° |
| 2026-05-07 17:57 | 38.92433 | -8.35888 | 34903 ft | 446 kts | 180° |
| 2026-05-07 17:58 | 38.86282 | -8.34852 | 34902 ft | 446 kts | 180° |
| 2026-05-07 17:58 | 38.80133 | -8.33821 | 34886 ft | 445 kts | 180° |
| 2026-05-07 17:59 | 38.73938 | -8.32787 | 34890 ft | 446 kts | 180° |
| 2026-05-07 17:59 | 38.67789 | -8.31763 | 34906 ft | 446 kts | 180° |
| 2026-05-07 18:00 | 38.61681 | -8.30749 | 34907 ft | 445 kts | 180° |
| 2026-05-07 18:00 | 38.55540 | -8.29732 | 34900 ft | 444 kts | 180° |
| 2026-05-07 18:01 | 38.49418 | -8.28716 | 34916 ft | 444 kts | 180° |
| 2026-05-07 18:01 | 38.43298 | -8.27704 | 34907 ft | 444 kts | 180° |
| 2026-05-07 18:02 | 38.34116 | -8.26189 | 34899 ft | 443 kts | 180° |
| 2026-05-07 18:03 | 38.28004 | -8.25183 | 34904 ft | 443 kts | 180° |
| 2026-05-07 18:03 | 38.21894 | -8.24178 | 34904 ft | 442 kts | 180° |
| 2026-05-07 18:04 | 38.15796 | -8.23178 | 34903 ft | 442 kts | 180° |
| 2026-05-07 18:04 | 38.09686 | -8.22178 | 34896 ft | 442 kts | 180° |
| 2026-05-07 18:05 | 38.03586 | -8.21180 | 34899 ft | 442 kts | 180° |
| 2026-05-07 18:05 | 37.97533 | -8.20192 | 34902 ft | 442 kts | 180° |
| 2026-05-07 18:06 | 37.91437 | -8.19199 | 34916 ft | 442 kts | 180° |
| 2026-05-07 18:06 | 37.85343 | -8.18206 | 34899 ft | 441 kts | 180° |
| 2026-05-07 18:07 | 37.79262 | -8.17219 | 34918 ft | 440 kts | 181° |
| 2026-05-07 18:07 | 37.73151 | -8.16228 | 34918 ft | 440 kts | 181° |
| 2026-05-07 18:08 | 37.67080 | -8.15246 | 34901 ft | 440 kts | 180° |
| 2026-05-07 18:08 | 37.61014 | -8.14265 | 34913 ft | 440 kts | 180° |
| 2026-05-07 18:09 | 37.54944 | -8.13286 | 34920 ft | 440 kts | 180° |
| 2026-05-07 18:09 | 37.48911 | -8.12315 | 34919 ft | 440 kts | 180° |
| 2026-05-07 18:10 | 37.42840 | -8.11338 | 34893 ft | 440 kts | 180° |
| 2026-05-07 18:10 | 37.36777 | -8.10365 | 34911 ft | 440 kts | 180° |
| 2026-05-07 18:11 | 37.30698 | -8.09391 | 34906 ft | 440 kts | 180° |
| 2026-05-07 18:11 | 37.24615 | -8.08417 | 34907 ft | 441 kts | 180° |
| 2026-05-07 18:12 | 37.18539 | -8.07446 | 34907 ft | 440 kts | 180° |
| 2026-05-07 18:12 | 37.12453 | -8.06475 | 34909 ft | 440 kts | 180° |
| 2026-05-07 18:13 | 37.06372 | -8.05506 | 34918 ft | 440 kts | 180° |
| 2026-05-07 18:13 | 37.00286 | -8.04539 | 34911 ft | 440 kts | 180° |
| 2026-05-07 18:14 | 36.94213 | -8.03574 | 34902 ft | 440 kts | 180° |
| 2026-05-07 18:14 | 36.88135 | -8.02611 | 34913 ft | 440 kts | 180° |
| 2026-05-07 18:15 | 36.82063 | -8.01650 | 34914 ft | 440 kts | 180° |
| 2026-05-07 18:15 | 36.75983 | -8.00689 | 34920 ft | 440 kts | 180° |
| 2026-05-07 18:16 | 36.69915 | -7.99732 | 34914 ft | 440 kts | 180° |
| 2026-05-07 18:16 | 36.63846 | -7.98776 | 34929 ft | 440 kts | 180° |
| 2026-05-07 18:17 | 36.57818 | -7.97828 | 34932 ft | 440 kts | 180° |
| 2026-05-07 18:17 | 36.51708 | -7.96869 | 34935 ft | 440 kts | 180° |
| 2026-05-07 18:18 | 36.45640 | -7.95918 | 34927 ft | 439 kts | 180° |
| 2026-05-07 18:18 | 36.39617 | -7.94976 | 34937 ft | 439 kts | 180° |
| 2026-05-07 18:19 | 36.33510 | -7.94022 | 34942 ft | 439 kts | 180° |
| 2026-05-07 18:19 | 36.27441 | -7.93075 | 34943 ft | 440 kts | 180° |
| 2026-05-07 18:20 | 36.21374 | -7.92130 | 34928 ft | 440 kts | 180° |
| 2026-05-07 18:20 | 36.15343 | -7.91192 | 34942 ft | 440 kts | 180° |
| 2026-05-07 18:21 | 36.09269 | -7.90248 | 34946 ft | 440 kts | 180° |
| 2026-05-07 18:21 | 36.03185 | -7.89305 | 34942 ft | 440 kts | 180° |
| 2026-05-07 18:22 | 35.97105 | -7.88363 | 34927 ft | 440 kts | 180° |
| 2026-05-07 18:22 | 35.91031 | -7.87660 | 34943 ft | 437 kts | 183° |
| 2026-05-07 18:23 | 35.84960 | -7.87179 | 34946 ft | 437 kts | 184° |
| 2026-05-07 18:23 | 35.78887 | -7.86676 | 34946 ft | 438 kts | 183° |
| 2026-05-07 18:24 | 35.72802 | -7.86135 | 34956 ft | 438 kts | 183° |
| 2026-05-07 18:24 | 35.66718 | -7.85583 | 34775 ft | 434 kts | 183° |
| 2026-05-07 18:24 | 35.63754 | -7.85307 | 34511 ft | 422 kts | 183° |
| 2026-05-07 18:25 | 35.60862 | -7.85040 | 34273 ft | 415 kts | 183° |
| 2026-05-07 18:25 | 35.57968 | -7.84783 | 34051 ft | 420 kts | 183° |
| 2026-05-07 18:25 | 35.55033 | -7.84527 | 33807 ft | 426 kts | 183° |
| 2026-05-07 18:25 | 35.52063 | -7.84263 | 33543 ft | 428 kts | 183° |
| 2026-05-07 18:26 | 35.49088 | -7.83994 | 33257 ft | 428 kts | 182° |
| 2026-05-07 18:26 | 35.46125 | -7.83726 | 32994 ft | 428 kts | 182° |
| 2026-05-07 18:26 | 35.43157 | -7.83458 | 32734 ft | 428 kts | 182° |
| 2026-05-07 18:26 | 35.40187 | -7.83193 | 32479 ft | 428 kts | 182° |
| 2026-05-07 18:27 | 35.37208 | -7.82939 | 32223 ft | 428 kts | 182° |
| 2026-05-07 18:27 | 35.34250 | -7.82691 | 31930 ft | 422 kts | 182° |
| 2026-05-07 18:27 | 35.31385 | -7.82449 | 31368 ft | 416 kts | 182° |
| 2026-05-07 18:27 | 35.29433 | -7.82286 | 30915 ft | 416 kts | 182° |
| 2026-05-07 18:28 | 35.25570 | -7.81967 | 29999 ft | 416 kts | 182° |
| 2026-05-07 18:28 | 35.22684 | -7.81728 | 29307 ft | 413 kts | 182° |
| 2026-05-07 18:28 | 35.19846 | -7.81490 | 28752 ft | 407 kts | 182° |
| 2026-05-07 18:28 | 35.17073 | -7.81256 | 28211 ft | 402 kts | 182° |
| 2026-05-07 18:29 | 35.14307 | -7.81024 | 27647 ft | 398 kts | 182° |
| 2026-05-07 18:29 | 35.11556 | -7.80795 | 27073 ft | 394 kts | 182° |
| 2026-05-07 18:29 | 35.08827 | -7.80567 | 26513 ft | 390 kts | 182° |
| 2026-05-07 18:29 | 35.06135 | -7.80344 | 25976 ft | 386 kts | 182° |
| 2026-05-07 18:30 | 35.03464 | -7.80122 | 25452 ft | 382 kts | 182° |
| 2026-05-07 18:30 | 35.00825 | -7.79902 | 25121 ft | 381 kts | 182° |
| 2026-05-07 18:30 | 34.98165 | -7.79685 | 25010 ft | 383 kts | 182° |
| 2026-05-07 18:30 | 34.95524 | -7.79466 | 24962 ft | 379 kts | 182° |
| 2026-05-07 18:31 | 34.92921 | -7.79247 | 24792 ft | 371 kts | 182° |
| 2026-05-07 18:31 | 34.90350 | -7.79033 | 24290 ft | 369 kts | 182° |
| 2026-05-07 18:31 | 34.87791 | -7.78822 | 23846 ft | 366 kts | 182° |
| 2026-05-07 18:31 | 34.85315 | -7.78613 | 23874 ft | 351 kts | 182° |
| 2026-05-07 18:32 | 34.82863 | -7.78413 | 23876 ft | 359 kts | 182° |
| 2026-05-07 18:32 | 34.80337 | -7.78211 | 23870 ft | 368 kts | 182° |
| 2026-05-07 18:32 | 34.77745 | -7.78000 | 23879 ft | 379 kts | 182° |
| 2026-05-07 18:32 | 34.75114 | -7.77782 | 23790 ft | 378 kts | 182° |
| 2026-05-07 18:33 | 34.73383 | -7.77638 | 23600 ft | 376 kts | 182° |
| 2026-05-07 18:33 | 34.69929 | -7.77379 | 23252 ft | 369 kts | 182° |
| 2026-05-07 18:33 | 34.68235 | -7.77260 | 23074 ft | 368 kts | 182° |
| 2026-05-07 18:33 | 34.64808 | -7.77025 | 22720 ft | 368 kts | 182° |
| 2026-05-07 18:34 | 34.63114 | -7.76909 | 22548 ft | 367 kts | 182° |
| 2026-05-07 18:34 | 34.60559 | -7.76733 | 22287 ft | 367 kts | 182° |
| 2026-05-07 18:34 | 34.58014 | -7.76556 | 22037 ft | 367 kts | 182° |
| 2026-05-07 18:34 | 34.55465 | -7.76377 | 21776 ft | 366 kts | 182° |
| 2026-05-07 18:35 | 34.52929 | -7.76199 | 21520 ft | 365 kts | 182° |
| 2026-05-07 18:35 | 34.50395 | -7.76021 | 21267 ft | 364 kts | 182° |
| 2026-05-07 18:35 | 34.47874 | -7.75843 | 20997 ft | 362 kts | 182° |
| 2026-05-07 18:35 | 34.45364 | -7.75667 | 20749 ft | 361 kts | 182° |
| 2026-05-07 18:36 | 34.42864 | -7.75491 | 20503 ft | 359 kts | 182° |
| 2026-05-07 18:36 | 34.40364 | -7.75315 | 20250 ft | 358 kts | 182° |
| 2026-05-07 18:36 | 34.37886 | -7.75142 | 20018 ft | 357 kts | 182° |
| 2026-05-07 18:36 | 34.35413 | -7.74968 | 19780 ft | 356 kts | 182° |
| 2026-05-07 18:37 | 34.32942 | -7.74795 | 19544 ft | 354 kts | 181° |
| 2026-05-07 18:37 | 34.30487 | -7.74624 | 19302 ft | 353 kts | 181° |
| 2026-05-07 18:37 | 34.28032 | -7.74452 | 19079 ft | 352 kts | 181° |
| 2026-05-07 18:37 | 34.25589 | -7.74281 | 18841 ft | 352 kts | 181° |
| 2026-05-07 18:38 | 34.23147 | -7.74111 | 18595 ft | 351 kts | 181° |
| 2026-05-07 18:38 | 34.20716 | -7.73941 | 18368 ft | 350 kts | 181° |
| 2026-05-07 18:38 | 34.18284 | -7.73769 | 18123 ft | 349 kts | 181° |
| 2026-05-07 18:38 | 34.15857 | -7.73563 | 17863 ft | 349 kts | 180° |
| 2026-05-07 18:39 | 34.13451 | -7.73143 | 17588 ft | 354 kts | 169° |
| 2026-05-07 18:39 | 34.11108 | -7.72221 | 17348 ft | 354 kts | 165° |
| 2026-05-07 18:39 | 34.08796 | -7.71199 | 17087 ft | 353 kts | 165° |
| 2026-05-07 18:39 | 34.06500 | -7.70164 | 16834 ft | 352 kts | 164° |
| 2026-05-07 18:40 | 34.04212 | -7.69126 | 16579 ft | 350 kts | 164° |
| 2026-05-07 18:40 | 34.01962 | -7.68106 | 16333 ft | 349 kts | 164° |
| 2026-05-07 18:40 | 33.99702 | -7.67081 | 16084 ft | 346 kts | 164° |
| 2026-05-07 18:40 | 33.97453 | -7.66064 | 15972 ft | 344 kts | 164° |
| 2026-05-07 18:41 | 33.95219 | -7.65052 | 15963 ft | 344 kts | 164° |
| 2026-05-07 18:41 | 33.92972 | -7.64033 | 15960 ft | 344 kts | 164° |
| 2026-05-07 18:41 | 33.90730 | -7.63018 | 15962 ft | 344 kts | 164° |
| 2026-05-07 18:41 | 33.88490 | -7.62003 | 15960 ft | 344 kts | 164° |
| 2026-05-07 18:42 | 33.86248 | -7.60988 | 15960 ft | 344 kts | 164° |
| 2026-05-07 18:42 | 33.84001 | -7.59971 | 15892 ft | 345 kts | 164° |
| 2026-05-07 18:42 | 33.81777 | -7.58964 | 15667 ft | 337 kts | 164° |
| 2026-05-07 18:42 | 33.79622 | -7.57984 | 15458 ft | 326 kts | 164° |
| 2026-05-07 18:43 | 33.77527 | -7.57028 | 15265 ft | 317 kts | 164° |
| 2026-05-07 18:43 | 33.75497 | -7.56100 | 15059 ft | 308 kts | 164° |
| 2026-05-07 18:43 | 33.73521 | -7.55194 | 14858 ft | 302 kts | 164° |
| 2026-05-07 18:43 | 33.71566 | -7.54299 | 14664 ft | 300 kts | 164° |
| 2026-05-07 18:44 | 33.69620 | -7.53406 | 14475 ft | 298 kts | 164° |
| 2026-05-07 18:44 | 33.67689 | -7.52518 | 14287 ft | 297 kts | 164° |
| 2026-05-07 18:44 | 33.65758 | -7.51631 | 14099 ft | 296 kts | 164° |
| 2026-05-07 18:44 | 33.63845 | -7.50755 | 13920 ft | 295 kts | 164° |
| 2026-05-07 18:45 | 33.61935 | -7.49883 | 13738 ft | 294 kts | 164° |
| 2026-05-07 18:45 | 33.60049 | -7.49023 | 13534 ft | 293 kts | 164° |
| 2026-05-07 18:45 | 33.58127 | -7.48151 | 13321 ft | 292 kts | 164° |
| 2026-05-07 18:45 | 33.56229 | -7.47292 | 13113 ft | 291 kts | 164° |
| 2026-05-07 18:46 | 33.54338 | -7.46439 | 12909 ft | 291 kts | 164° |
| 2026-05-07 18:46 | 33.52442 | -7.45592 | 12707 ft | 290 kts | 166° |
| 2026-05-07 18:46 | 33.50527 | -7.44890 | 12506 ft | 288 kts | 168° |
| 2026-05-07 18:46 | 33.48595 | -7.44242 | 12301 ft | 288 kts | 169° |
| 2026-05-07 18:47 | 33.46690 | -7.43613 | 12109 ft | 287 kts | 169° |
| 2026-05-07 18:47 | 33.44741 | -7.42971 | 11894 ft | 287 kts | 169° |
| 2026-05-07 18:47 | 33.42822 | -7.42336 | 11675 ft | 287 kts | 169° |
| 2026-05-07 18:47 | 33.40922 | -7.41706 | 11463 ft | 286 kts | 169° |
| 2026-05-07 18:48 | 33.38972 | -7.41063 | 11253 ft | 296 kts | 169° |
| 2026-05-07 18:48 | 33.36978 | -7.40408 | 11036 ft | 296 kts | 169° |
| 2026-05-07 18:48 | 33.35001 | -7.39758 | 10813 ft | 294 kts | 169° |
| 2026-05-07 18:48 | 33.33037 | -7.39111 | 10599 ft | 293 kts | 169° |
| 2026-05-07 18:49 | 33.31067 | -7.38461 | 10389 ft | 292 kts | 169° |
| 2026-05-07 18:49 | 33.29113 | -7.37815 | 10173 ft | 290 kts | 169° |
| 2026-05-07 18:49 | 33.27180 | -7.37174 | 9957 ft | 287 kts | 169° |
| 2026-05-07 18:49 | 33.25260 | -7.36536 | 9734 ft | 285 kts | 169° |
| 2026-05-07 18:50 | 33.23357 | -7.35904 | 9507 ft | 284 kts | 169° |
| 2026-05-07 18:50 | 33.21454 | -7.35277 | 9264 ft | 284 kts | 169° |
| 2026-05-07 18:50 | 33.19547 | -7.34660 | 9041 ft | 284 kts | 169° |
| 2026-05-07 18:50 | 33.17643 | -7.34056 | 8798 ft | 283 kts | 169° |
| 2026-05-07 18:51 | 33.15736 | -7.33465 | 8557 ft | 283 kts | 169° |
| 2026-05-07 18:51 | 33.13827 | -7.32887 | 8251 ft | 281 kts | 169° |
| 2026-05-07 18:51 | 33.11946 | -7.32326 | 7949 ft | 275 kts | 169° |
| 2026-05-07 18:51 | 33.10129 | -7.31792 | 7664 ft | 264 kts | 169° |
| 2026-05-07 18:52 | 33.08375 | -7.31280 | 7387 ft | 255 kts | 169° |
| 2026-05-07 18:52 | 33.06691 | -7.31023 | 7259 ft | 233 kts | 188° |
| 2026-05-07 18:52 | 33.05295 | -7.31713 | 7134 ft | 210 kts | 221° |
| 2026-05-07 18:52 | 33.04499 | -7.33080 | 6992 ft | 194 kts | 242° |
| 2026-05-07 18:53 | 33.03973 | -7.34490 | 6798 ft | 181 kts | 244° |
| 2026-05-07 18:53 | 33.03469 | -7.35864 | 6488 ft | 182 kts | 244° |
| 2026-05-07 18:53 | 33.02950 | -7.37256 | 6199 ft | 185 kts | 244° |
| 2026-05-07 18:53 | 33.02428 | -7.38658 | 5796 ft | 189 kts | 245° |
| 2026-05-07 18:54 | 33.01869 | -7.40104 | 5388 ft | 191 kts | 244° |
| 2026-05-07 18:54 | 33.01303 | -7.41526 | 4998 ft | 193 kts | 245° |
| 2026-05-07 18:54 | 33.00776 | -7.42998 | 4562 ft | 193 kts | 260° |
| 2026-05-07 18:54 | 33.00876 | -7.44544 | 4166 ft | 187 kts | 297° |
| 2026-05-07 18:55 | 33.01714 | -7.45538 | 4197 ft | 167 kts | 336° |
| 2026-05-07 18:55 | 33.02855 | -7.46122 | 4251 ft | 189 kts | 339° |
| 2026-05-07 18:55 | 33.04062 | -7.46708 | 4218 ft | 184 kts | 339° |
| 2026-05-07 18:55 | 33.05203 | -7.47262 | 4218 ft | 178 kts | 339° |
| 2026-05-07 18:56 | 33.06366 | -7.47837 | 4220 ft | 176 kts | 339° |
| 2026-05-07 18:56 | 33.07503 | -7.48399 | 4221 ft | 177 kts | 339° |
| 2026-05-07 18:56 | 33.08658 | -7.48955 | 4223 ft | 179 kts | 340° |
| 2026-05-07 18:56 | 33.09735 | -7.49646 | 4218 ft | 177 kts | 317° |
| 2026-05-07 18:57 | 33.10609 | -7.50704 | 4221 ft | 183 kts | 327° |
| 2026-05-07 18:57 | 33.11804 | -7.51069 | 4241 ft | 179 kts | 359° |
| 2026-05-07 18:57 | 33.13052 | -7.51124 | 4228 ft | 178 kts | 354° |
| 2026-05-07 18:57 | 33.14248 | -7.51448 | 4222 ft | 175 kts | 345° |
| 2026-05-07 18:58 | 33.15419 | -7.51862 | 4225 ft | 176 kts | 345° |
| 2026-05-07 18:58 | 33.16604 | -7.52277 | 4223 ft | 179 kts | 345° |
| 2026-05-07 18:58 | 33.17789 | -7.52688 | 4150 ft | 181 kts | 346° |
| 2026-05-07 18:58 | 33.19020 | -7.53111 | 3908 ft | 187 kts | 345° |
| 2026-05-07 18:59 | 33.20271 | -7.53543 | 3665 ft | 182 kts | 346° |
| 2026-05-07 18:59 | 33.21444 | -7.53947 | 3422 ft | 175 kts | 346° |
| 2026-05-07 18:59 | 33.22608 | -7.54347 | 3197 ft | 170 kts | 346° |
| 2026-05-07 18:59 | 33.23742 | -7.54737 | 2979 ft | 174 kts | 346° |
| 2026-05-07 19:00 | 33.24927 | -7.55145 | 2744 ft | 178 kts | 347° |
| 2026-05-07 19:00 | 33.26085 | -7.55544 | 2495 ft | 167 kts | 347° |
| 2026-05-07 19:00 | 33.27158 | -7.55914 | 2268 ft | 157 kts | 346° |
| 2026-05-07 19:00 | 33.28229 | -7.56281 | 2073 ft | 164 kts | 346° |
| 2026-05-07 19:01 | 33.29336 | -7.56662 | 1852 ft | 168 kts | 347° |
| 2026-05-07 19:01 | 33.30430 | -7.57040 | 1646 ft | 157 kts | 346° |
| 2026-05-07 19:01 | 33.31448 | -7.57391 | 1430 ft | 145 kts | 345° |
| 2026-05-07 19:01 | 33.32408 | -7.57721 | 1255 ft | 142 kts | 346° |
| 2026-05-07 19:02 | 33.33334 | -7.58035 | 1030 ft | 135 kts | 345° |
| 2026-05-07 19:02 | 33.34217 | -7.58344 | 835 ft | 130 kts | 345° |
| 2026-05-07 19:02 | 33.35087 | -7.58639 | 700 ft | 129 kts | 345° |
| 2026-05-07 19:02 | 33.35879 | -7.58906 | 649 ft | 106 kts | 344° |
| 2026-05-07 19:03 | 33.36470 | -7.59113 | 650 ft | 71 kts | 343° |
| 2026-05-07 19:03 | 33.36830 | -7.59238 | 649 ft | 37 kts | 343° |
| 2026-05-07 19:03 | 33.37063 | -7.59318 | 652 ft | 34 kts | 345° |
| 2026-05-07 19:03 | 33.37295 | -7.59297 | 653 ft | 33 kts | 13° |
| 2026-05-07 19:04 | 33.37503 | -7.59234 | 651 ft | 30 kts | 15° |
| 2026-05-07 19:04 | 33.37694 | -7.59166 | 647 ft | 28 kts | 15° |
| 2026-05-07 19:04 | 33.37827 | -7.59051 | 647 ft | 24 kts | 71° |
| 2026-05-07 19:04 | 33.37858 | -7.58923 | 651 ft | 0 kts | 73° |
| 2026-05-07 19:05 | 33.37859 | -7.58917 | 651 ft | 3 kts | 73° |
| 2026-05-07 19:06 | 33.37871 | -7.58869 | 651 ft | 9 kts | 73° |
| 2026-05-07 19:06 | 33.37890 | -7.58624 | 652 ft | 17 kts | 125° |
| 2026-05-07 19:06 | 33.37818 | -7.58514 | 652 ft | 16 kts | 134° |
| 2026-05-07 19:07 | 33.37718 | -7.58458 | 652 ft | 16 kts | 164° |
| 2026-05-07 19:07 | 33.37613 | -7.58437 | 652 ft | 15 kts | 175° |
| 2026-05-07 19:07 | 33.37521 | -7.58433 | 654 ft | 11 kts | 224° |
| 2026-05-07 19:07 | 33.37492 | -7.58495 | 653 ft | 5 kts | 212° |
| 2026-05-07 19:08 | 33.37465 | -7.58483 | 652 ft | 4 kts | 116° |
| 2026-05-07 19:08 | 33.37473 | -7.58456 | 652 ft | 2 kts | 69° |
| 2026-05-07 19:08 | 33.37478 | -7.58462 | 652 ft | 0 kts | 122° |
| 2026-05-07 19:08 | 33.37477 | -7.58461 | 652 ft | 0 kts | 122° |
| 2026-05-07 19:09 | 33.37477 | -7.58460 | 652 ft | 0 kts | 122° |